createdAt,value
2022-10-19T00:00:10.332Z,70.70
2022-10-19T00:01:13.186Z,70.48
2022-10-19T00:02:17.946Z,70.18
2022-10-19T00:03:23.193Z,70.17
2022-10-19T00:04:26.300Z,69.26
2022-10-19T00:05:29.010Z,68.79
2022-10-19T00:06:34.499Z,68.59
2022-10-19T00:07:37.498Z,68.59
2022-10-19T00:08:41.841Z,68.15
2022-10-19T00:09:45.010Z,67.92
2022-10-19T00:10:47.776Z,67.78
2022-10-19T00:11:51.568Z,67.72
2022-10-19T00:12:54.256Z,67.73
2022-10-19T00:13:58.345Z,67.69
2022-10-19T00:15:01.169Z,67.89
2022-10-19T00:16:12.352Z,67.84
2022-10-19T00:17:15.298Z,67.88
2022-10-19T00:18:19.407Z,68.01
2022-10-19T00:19:25.131Z,68.07
2022-10-19T00:20:27.858Z,68.30
2022-10-19T00:21:31.175Z,69.01
2022-10-19T00:22:34.457Z,69.73
2022-10-19T00:23:37.620Z,69.49
2022-10-19T00:24:40.466Z,69.50
2022-10-19T00:25:43.455Z,69.80
2022-10-19T00:26:46.374Z,69.88
2022-10-19T00:27:49.258Z,69.71
2022-10-19T00:28:55.556Z,69.68
2022-10-19T00:29:58.626Z,69.54
2022-10-19T00:31:06.261Z,69.39
2022-10-19T00:32:09.285Z,68.99
2022-10-19T00:33:12.219Z,68.30
2022-10-19T00:34:15.014Z,67.82
2022-10-19T00:35:18.016Z,67.28
2022-10-19T00:36:27.535Z,67.20
2022-10-19T00:37:30.509Z,67.41
2022-10-19T00:38:33.941Z,67.45
2022-10-19T00:39:36.827Z,67.58
2022-10-19T00:40:40.772Z,67.71
2022-10-19T00:41:45.613Z,67.75
2022-10-19T00:42:54.824Z,67.68
2022-10-19T00:44:06.500Z,67.71
2022-10-19T00:45:16.811Z,67.85
2022-10-19T00:46:19.703Z,67.99
2022-10-19T00:47:24.782Z,68.08
2022-10-19T00:48:32.275Z,68.07
2022-10-19T00:49:45.980Z,68.13
2022-10-19T00:50:51.374Z,68.17
2022-10-19T00:51:57.267Z,68.30
2022-10-19T00:53:03.857Z,68.39
2022-10-19T00:54:09.419Z,68.59
2022-10-19T00:55:13.306Z,68.78
2022-10-19T00:56:17.436Z,68.87
2022-10-19T00:57:20.933Z,69.02
2022-10-19T00:58:23.854Z,69.03
2022-10-19T00:59:28.824Z,69.05
2022-10-19T01:00:32.220Z,69.29
2022-10-19T01:01:36.012Z,69.15
2022-10-19T01:02:39.054Z,69.10
2022-10-19T01:03:42.221Z,69.06
2022-10-19T01:04:50.414Z,69.10
2022-10-19T01:05:53.422Z,68.85
2022-10-19T01:06:57.772Z,68.73
2022-10-19T01:08:01.173Z,68.58
2022-10-19T01:09:04.161Z,68.04
2022-10-19T01:10:07.658Z,67.78
2022-10-19T01:11:42.758Z,67.48
2022-10-19T01:13:05.532Z,67.35
2022-10-19T01:14:37.463Z,67.32
2022-10-19T01:15:55.975Z,67.33
2022-10-19T01:17:20.538Z,67.13
2022-10-19T01:18:54.455Z,67.19
2022-10-19T01:20:15.137Z,67.18
2022-10-19T01:21:48.252Z,67.48
2022-10-19T01:23:35.178Z,67.30
2022-10-19T01:24:59.174Z,67.36
2022-10-19T01:26:16.613Z,67.72
2022-10-19T01:27:55.932Z,67.68
2022-10-19T01:29:31.371Z,67.73
2022-10-19T01:31:01.811Z,67.17
2022-10-19T01:32:28.135Z,67.15
2022-10-19T01:34:10.104Z,67.46
2022-10-19T01:35:26.256Z,67.73
2022-10-19T01:36:44.293Z,67.77
2022-10-19T01:38:04.268Z,67.62
2022-10-19T01:39:29.350Z,67.83
2022-10-19T01:40:37.011Z,67.77
2022-10-19T01:41:50.859Z,68.20
2022-10-19T01:43:18.245Z,68.27
2022-10-19T01:44:37.697Z,68.28
2022-10-19T01:46:11.637Z,68.26
2022-10-19T01:47:27.919Z,68.13
2022-10-19T01:48:37.729Z,68.04
2022-10-19T01:49:43.345Z,68.27
2022-10-19T01:51:15.346Z,68.45
2022-10-19T01:52:21.046Z,68.58
2022-10-19T01:53:27.748Z,68.55
2022-10-19T01:54:38.946Z,68.44
2022-10-19T01:55:45.257Z,68.39
2022-10-19T01:56:49.992Z,68.38
2022-10-19T01:58:08.401Z,68.24
2022-10-19T01:59:14.671Z,68.37
2022-10-19T02:00:18.353Z,68.20
2022-10-19T02:01:23.273Z,68.17
2022-10-19T02:02:28.277Z,68.18
2022-10-19T02:03:32.012Z,68.21
2022-10-19T02:04:37.119Z,68.28
2022-10-19T02:05:42.136Z,68.34
2022-10-19T02:06:45.331Z,68.53
2022-10-19T02:07:55.038Z,68.89
2022-10-19T02:08:58.260Z,69.17
2022-10-19T02:10:01.335Z,69.65
2022-10-19T02:11:04.821Z,69.90
2022-10-19T02:12:11.618Z,70.07
2022-10-19T02:13:16.756Z,69.98
2022-10-19T02:14:23.678Z,69.87
2022-10-19T02:15:27.893Z,69.93
2022-10-19T02:16:37.275Z,70.16
2022-10-19T02:17:46.665Z,70.49
2022-10-19T02:18:52.057Z,70.97
2022-10-19T02:19:55.468Z,71.21
2022-10-19T02:21:00.859Z,71.39
2022-10-19T02:22:04.173Z,71.42
2022-10-19T02:23:07.813Z,71.62
2022-10-19T02:24:10.774Z,71.92
2022-10-19T02:25:13.811Z,72.20
2022-10-19T02:26:16.934Z,72.63
2022-10-19T02:27:19.897Z,72.74
2022-10-19T02:29:28.906Z,73.06
2022-10-19T02:30:32.095Z,73.16
2022-10-19T02:31:35.184Z,73.47
2022-10-19T02:32:38.381Z,73.70
2022-10-19T02:33:41.415Z,73.79
2022-10-19T02:34:44.900Z,74.03
2022-10-19T02:35:48.492Z,74.45
2022-10-19T02:36:51.381Z,74.58
2022-10-19T02:37:56.061Z,74.52
2022-10-19T02:39:00.699Z,74.76
2022-10-19T02:40:05.373Z,75.13
2022-10-19T02:41:37.255Z,75.34
2022-10-19T02:42:52.943Z,75.38
2022-10-19T02:44:14.189Z,74.35
2022-10-19T02:45:27.821Z,73.71
2022-10-19T02:46:42.042Z,73.55
2022-10-19T02:47:52.813Z,73.58
2022-10-19T02:48:58.413Z,72.69
2022-10-19T02:50:05.225Z,70.25
2022-10-19T02:51:28.098Z,70.47
2022-10-19T02:52:30.973Z,71.04
2022-10-19T02:53:33.732Z,71.41
2022-10-19T02:54:37.374Z,71.88
2022-10-19T02:56:48.676Z,72.20
2022-10-19T02:57:51.711Z,71.81
2022-10-19T02:58:55.388Z,71.94
2022-10-19T02:59:58.899Z,72.33
2022-10-19T03:01:01.909Z,72.28
2022-10-19T03:02:04.819Z,72.30
2022-10-19T03:03:07.780Z,72.36
2022-10-19T03:04:10.712Z,72.29
2022-10-19T03:05:13.586Z,72.22
2022-10-19T03:06:16.413Z,72.13
2022-10-19T03:07:21.390Z,72.14
2022-10-19T03:08:24.333Z,72.21
2022-10-19T03:09:27.252Z,72.18
2022-10-19T03:10:30.228Z,71.96
2022-10-19T03:11:33.178Z,72.04
2022-10-19T03:12:36.009Z,72.32
2022-10-19T03:13:38.779Z,72.36
2022-10-19T03:14:41.821Z,72.58
2022-10-19T03:15:44.673Z,72.71
2022-10-19T03:16:47.583Z,72.29
2022-10-19T03:17:53.692Z,72.26
2022-10-19T03:18:56.661Z,72.25
2022-10-19T03:19:59.534Z,71.55
2022-10-19T03:21:13.138Z,70.96
2022-10-19T03:22:16.135Z,71.58
2022-10-19T03:23:19.039Z,71.57
2022-10-19T03:24:22.014Z,71.69
2022-10-19T03:25:24.967Z,71.72
2022-10-19T03:26:27.861Z,71.69
2022-10-19T03:27:30.879Z,71.74
2022-10-19T03:28:35.714Z,72.19
2022-10-19T03:29:38.600Z,72.45
2022-10-19T03:30:41.364Z,72.50
2022-10-19T03:31:44.325Z,71.96
2022-10-19T03:32:47.203Z,71.99
2022-10-19T03:33:50.695Z,72.17
2022-10-19T03:34:53.437Z,72.26
2022-10-19T03:36:23.079Z,72.51
2022-10-19T03:37:26.218Z,72.60
2022-10-19T03:38:32.843Z,72.56
2022-10-19T03:39:35.860Z,72.68
2022-10-19T03:40:40.213Z,72.91
2022-10-19T03:41:43.789Z,72.59
2022-10-19T03:42:46.495Z,72.34
2022-10-19T03:43:49.822Z,72.47
2022-10-19T03:44:52.663Z,72.40
2022-10-19T03:45:55.453Z,72.26
2022-10-19T03:46:58.580Z,72.30
2022-10-19T03:48:02.103Z,72.32
2022-10-19T03:49:06.221Z,71.29
2022-10-19T03:50:11.619Z,70.38
2022-10-19T03:51:18.699Z,69.31
2022-10-19T03:52:21.612Z,68.10
2022-10-19T03:53:24.463Z,68.45
2022-10-19T03:54:27.596Z,68.82
2022-10-19T03:55:30.826Z,68.42
2022-10-19T03:56:35.023Z,68.71
2022-10-19T03:57:38.584Z,68.65
2022-10-19T03:58:44.925Z,68.82
2022-10-19T03:59:48.756Z,68.72
2022-10-19T04:00:51.583Z,68.77
2022-10-19T04:01:54.399Z,68.73
2022-10-19T04:02:57.197Z,67.98
2022-10-19T04:04:03.014Z,67.99
2022-10-19T04:05:06.492Z,67.74
2022-10-19T04:06:18.239Z,68.29
2022-10-19T04:07:24.107Z,68.66
2022-10-19T04:08:31.162Z,69.07
2022-10-19T04:09:34.043Z,69.51
2022-10-19T04:10:36.767Z,69.61
2022-10-19T04:11:39.956Z,69.75
2022-10-19T04:12:42.861Z,70.16
2022-10-19T04:13:50.684Z,70.11
2022-10-19T04:14:57.382Z,70.63
2022-10-19T04:16:01.712Z,70.86
2022-10-19T04:17:05.092Z,71.37
2022-10-19T04:18:07.949Z,71.77
2022-10-19T04:19:15.106Z,71.92
2022-10-19T04:20:17.960Z,72.33
2022-10-19T04:21:41.813Z,72.27
2022-10-19T04:22:44.687Z,72.12
2022-10-19T04:23:47.580Z,72.44
2022-10-19T04:24:50.441Z,72.65
2022-10-19T04:25:53.359Z,72.76
2022-10-19T04:26:57.035Z,73.01
2022-10-19T04:27:59.909Z,73.20
2022-10-19T04:29:03.072Z,73.21
2022-10-19T04:30:06.508Z,73.23
2022-10-19T04:31:11.290Z,73.48
2022-10-19T04:32:15.071Z,73.87
2022-10-19T04:33:17.783Z,74.55
2022-10-19T04:34:23.938Z,74.67
2022-10-19T04:35:26.799Z,74.97
2022-10-19T04:36:29.720Z,75.13
2022-10-19T04:37:36.277Z,74.99
2022-10-19T04:38:40.697Z,74.97
2022-10-19T04:39:44.778Z,74.74
2022-10-19T04:40:47.615Z,74.72
2022-10-19T04:41:50.429Z,75.06
2022-10-19T04:42:53.329Z,75.37
2022-10-19T04:44:01.993Z,75.51
2022-10-19T04:45:05.109Z,75.67
2022-10-19T04:46:14.231Z,75.79
2022-10-19T04:47:17.121Z,76.10
2022-10-19T04:48:20.794Z,76.07
2022-10-19T04:49:23.649Z,76.41
2022-10-19T04:50:26.987Z,76.52
2022-10-19T04:51:29.990Z,76.56
2022-10-19T04:52:35.425Z,76.82
2022-10-19T04:53:39.648Z,77.13
2022-10-19T04:54:42.527Z,77.24
2022-10-19T04:55:48.927Z,77.34
2022-10-19T04:56:54.020Z,77.57
2022-10-19T04:57:56.979Z,77.99
2022-10-19T04:59:01.551Z,78.14
2022-10-19T05:00:05.148Z,78.44
2022-10-19T05:01:28.778Z,78.82
2022-10-19T05:02:31.693Z,79.06
2022-10-19T05:03:34.626Z,79.64
2022-10-19T05:04:39.748Z,80.02
2022-10-19T05:05:44.322Z,80.06
2022-10-19T05:06:47.284Z,79.64
2022-10-19T05:07:50.027Z,79.62
2022-10-19T05:08:53.179Z,79.50
2022-10-19T05:09:55.845Z,79.62
2022-10-19T05:11:07.311Z,79.64
2022-10-19T05:12:10.223Z,79.85
2022-10-19T05:13:13.191Z,79.49
2022-10-19T05:14:16.177Z,79.54
2022-10-19T05:15:19.100Z,79.58
2022-10-19T05:16:23.610Z,79.82
2022-10-19T05:17:26.601Z,79.55
2022-10-19T05:18:30.000Z,79.14
2022-10-19T05:19:32.925Z,78.89
2022-10-19T05:20:36.065Z,78.94
2022-10-19T05:21:39.010Z,78.60
2022-10-19T05:22:41.914Z,78.15
2022-10-19T05:23:44.900Z,77.96
2022-10-19T05:24:48.226Z,77.89
2022-10-19T05:26:00.546Z,78.29
2022-10-19T05:27:03.436Z,78.59
2022-10-19T05:28:06.940Z,78.56
2022-10-19T05:29:12.924Z,78.55
2022-10-19T05:30:15.822Z,78.17
2022-10-19T05:31:24.055Z,78.49
2022-10-19T05:32:28.387Z,78.76
2022-10-19T05:33:31.289Z,78.42
2022-10-19T05:34:34.087Z,78.51
2022-10-19T05:35:36.896Z,78.57
2022-10-19T05:36:41.044Z,78.77
2022-10-19T05:37:43.907Z,78.49
2022-10-19T05:38:50.395Z,78.54
2022-10-19T05:39:55.666Z,78.54
2022-10-19T05:40:58.516Z,78.86
2022-10-19T05:42:01.470Z,78.05
2022-10-19T05:43:05.140Z,77.97
2022-10-19T05:44:07.977Z,78.12
2022-10-19T05:45:11.240Z,77.83
2022-10-19T05:46:19.394Z,77.95
2022-10-19T05:47:22.202Z,77.99
2022-10-19T05:48:26.070Z,77.85
2022-10-19T05:49:28.871Z,78.18
2022-10-19T05:50:31.972Z,78.50
2022-10-19T05:51:34.845Z,78.91
2022-10-19T05:52:37.659Z,79.10
2022-10-19T05:53:41.236Z,78.66
2022-10-19T05:54:44.152Z,78.61
2022-10-19T05:55:47.070Z,78.31
2022-10-19T05:56:50.036Z,78.57
2022-10-19T05:57:52.872Z,78.94
2022-10-19T05:58:59.037Z,78.97
2022-10-19T06:00:03.011Z,78.99
2022-10-19T06:01:06.472Z,78.61
2022-10-19T06:02:14.258Z,78.87
2022-10-19T06:03:17.936Z,78.39
2022-10-19T06:04:20.770Z,78.47
2022-10-19T06:05:23.647Z,78.70
2022-10-19T06:06:27.590Z,78.91
2022-10-19T06:07:30.488Z,79.24
2022-10-19T06:08:35.270Z,79.28
2022-10-19T06:09:38.174Z,79.64
2022-10-19T06:10:45.689Z,79.47
2022-10-19T06:11:48.719Z,79.54
2022-10-19T06:12:51.491Z,79.76
2022-10-19T06:13:56.500Z,79.83
2022-10-19T06:14:59.223Z,79.94
2022-10-19T06:16:02.137Z,79.67
2022-10-19T06:17:04.945Z,79.77
2022-10-19T06:18:08.922Z,79.80
2022-10-19T06:19:11.689Z,79.90
2022-10-19T06:20:16.084Z,79.80
2022-10-19T06:21:21.295Z,79.94
2022-10-19T06:22:24.138Z,79.53
2022-10-19T06:23:27.017Z,79.51
2022-10-19T06:24:29.789Z,79.64
2022-10-19T06:25:33.874Z,79.66
2022-10-19T06:26:40.198Z,78.99
2022-10-19T06:27:43.158Z,79.01
2022-10-19T06:28:47.108Z,79.26
2022-10-19T06:29:49.922Z,79.08
2022-10-19T06:30:54.167Z,79.21
2022-10-19T06:31:59.933Z,79.52
2022-10-19T06:34:06.968Z,79.29
2022-10-19T06:35:10.400Z,79.45
2022-10-19T06:36:18.770Z,78.89
2022-10-19T06:37:21.613Z,78.97
2022-10-19T06:38:25.404Z,78.67
2022-10-19T06:39:28.233Z,78.76
2022-10-19T06:40:31.064Z,79.05
2022-10-19T06:41:34.919Z,78.82
2022-10-19T06:42:40.983Z,78.89
2022-10-19T06:43:43.888Z,78.65
2022-10-19T06:44:46.853Z,77.97
2022-10-19T06:45:49.728Z,78.19
2022-10-19T06:46:52.924Z,78.08
2022-10-19T06:47:55.780Z,78.15
2022-10-19T06:49:01.721Z,78.23
2022-10-19T06:50:10.047Z,77.94
2022-10-19T06:51:13.960Z,77.69
2022-10-19T06:52:16.626Z,77.42
2022-10-19T06:53:19.441Z,76.92
2022-10-19T06:54:22.281Z,77.23
2022-10-19T06:55:25.345Z,77.21
2022-10-19T06:56:28.596Z,76.84
2022-10-19T06:57:32.126Z,76.84
2022-10-19T06:58:39.206Z,77.06
2022-10-19T06:59:41.934Z,77.11
2022-10-19T07:00:44.944Z,76.94
2022-10-19T07:01:47.842Z,76.34
2022-10-19T07:02:50.637Z,76.09
2022-10-19T07:03:53.975Z,75.76
2022-10-19T07:04:56.943Z,76.05
2022-10-19T07:06:02.371Z,76.03
2022-10-19T07:07:05.084Z,75.91
2022-10-19T07:08:08.698Z,74.96
2022-10-19T07:09:11.859Z,75.02
2022-10-19T07:10:14.806Z,75.10
2022-10-19T07:11:20.685Z,75.33
2022-10-19T07:12:23.576Z,75.43
2022-10-19T07:13:27.321Z,74.81
2022-10-19T07:14:31.063Z,73.82
2022-10-19T07:15:33.798Z,73.05
2022-10-19T07:16:36.709Z,73.37
2022-10-19T07:18:47.828Z,73.56
2022-10-19T07:19:50.767Z,73.57
2022-10-19T07:20:57.235Z,72.32
2022-10-19T07:22:00.100Z,71.42
2022-10-19T07:23:03.026Z,71.73
2022-10-19T07:24:05.951Z,71.44
2022-10-19T07:25:09.091Z,70.52
2022-10-19T07:26:18.299Z,70.76
2022-10-19T07:27:21.102Z,70.43
2022-10-19T07:28:26.339Z,70.23
2022-10-19T07:29:29.356Z,70.71
2022-10-19T07:30:32.198Z,70.94
2022-10-19T07:31:35.131Z,70.80
2022-10-19T07:32:37.947Z,70.64
2022-10-19T07:33:41.410Z,70.37
2022-10-19T07:34:44.398Z,69.52
2022-10-19T07:35:47.330Z,70.15
2022-10-19T07:36:50.485Z,70.04
2022-10-19T07:37:53.398Z,69.95
2022-10-19T07:38:56.495Z,70.15
2022-10-19T07:39:59.541Z,69.30
2022-10-19T07:41:05.208Z,68.77
2022-10-19T07:42:08.386Z,69.26
2022-10-19T07:43:11.322Z,68.80
2022-10-19T07:44:15.889Z,69.07
2022-10-19T07:45:18.891Z,68.95
2022-10-19T07:46:24.095Z,68.89
2022-10-19T07:47:26.847Z,68.99
2022-10-19T07:48:30.128Z,69.25
2022-10-19T07:49:32.919Z,69.52
2022-10-19T07:50:35.764Z,69.37
2022-10-19T07:51:39.130Z,69.67
2022-10-19T07:52:42.263Z,69.43
2022-10-19T07:53:46.070Z,69.34
2022-10-19T07:54:49.826Z,68.30
2022-10-19T07:55:52.754Z,68.65
2022-10-19T07:56:55.629Z,68.46
2022-10-19T07:58:01.705Z,68.77
2022-10-19T07:59:05.705Z,67.83
2022-10-19T08:00:09.409Z,68.15
2022-10-19T08:01:18.392Z,67.59
2022-10-19T08:02:21.212Z,66.52
2022-10-19T08:04:14.319Z,66.32
2022-10-19T08:05:07.337Z,65.99
2022-10-19T08:06:12.967Z,65.76
2022-10-19T08:07:15.842Z,65.93
2022-10-19T08:08:25.524Z,65.01
2022-10-19T08:09:51.492Z,65.44
2022-10-19T08:10:51.655Z,66.10
2022-10-19T08:11:55.004Z,66.86
2022-10-19T08:12:57.818Z,65.15
2022-10-19T08:14:03.139Z,65.24
2022-10-19T08:15:07.384Z,65.63
2022-10-19T08:16:28.031Z,65.09
2022-10-19T08:17:31.133Z,64.21
2022-10-19T08:18:36.316Z,64.77
2022-10-19T08:19:43.745Z,65.49
2022-10-19T08:20:46.892Z,65.76
2022-10-19T08:21:49.986Z,65.77
2022-10-19T08:23:05.325Z,65.90
2022-10-19T08:24:08.566Z,64.68
2022-10-19T08:25:11.329Z,64.27
2022-10-19T08:26:14.400Z,64.48
2022-10-19T08:27:17.443Z,63.35
2022-10-19T08:28:20.709Z,63.74
2022-10-19T08:29:25.527Z,63.75
2022-10-19T08:30:30.598Z,63.43
2022-10-19T08:31:33.396Z,63.55
2022-10-19T08:32:36.584Z,62.23
2022-10-19T08:33:40.339Z,62.55
2022-10-19T08:34:43.135Z,62.36
2022-10-19T08:35:46.028Z,62.80
2022-10-19T08:36:48.923Z,63.18
2022-10-19T08:37:51.908Z,62.80
2022-10-19T08:38:59.724Z,62.10
2022-10-19T08:40:02.751Z,60.33
2022-10-19T08:41:35.878Z,60.30
2022-10-19T08:42:53.422Z,61.47
2022-10-19T08:44:07.648Z,61.70
2022-10-19T08:45:37.021Z,59.59
2022-10-19T08:46:55.228Z,59.52
2022-10-19T08:48:08.278Z,60.00
2022-10-19T08:49:19.388Z,60.74
2022-10-19T08:50:34.413Z,60.15
2022-10-19T08:51:41.329Z,60.80
2022-10-19T08:52:49.927Z,60.29
2022-10-19T08:53:57.039Z,61.45
2022-10-19T08:55:03.265Z,61.26
2022-10-19T08:56:49.157Z,59.86
2022-10-19T08:57:59.729Z,59.97
2022-10-19T08:59:23.027Z,59.03
2022-10-19T09:00:36.640Z,58.84
2022-10-19T09:01:58.574Z,58.57
2022-10-19T09:03:04.639Z,58.71
2022-10-19T09:04:17.475Z,59.06
2022-10-19T09:05:45.822Z,58.76
2022-10-19T09:06:52.025Z,57.63
2022-10-19T09:07:55.798Z,58.78
2022-10-19T09:08:59.583Z,58.87
2022-10-19T09:10:28.467Z,58.55
2022-10-19T09:11:35.999Z,57.94
2022-10-19T09:12:53.927Z,57.23
2022-10-19T09:14:36.780Z,57.53
2022-10-19T09:15:43.442Z,57.80
2022-10-19T09:16:46.662Z,57.05
2022-10-19T09:17:49.525Z,56.98
2022-10-19T09:20:35.118Z,56.62
2022-10-19T09:21:47.892Z,56.50
2022-10-19T09:23:13.890Z,57.97
2022-10-19T09:24:37.555Z,56.54
2022-10-19T09:25:41.254Z,55.94
2022-10-19T09:26:55.398Z,55.42
2022-10-19T09:28:13.154Z,55.41
2022-10-19T09:29:34.322Z,55.86
2022-10-19T09:30:39.698Z,55.64
2022-10-19T09:31:46.168Z,55.29
2022-10-19T09:33:00.671Z,55.66
2022-10-19T09:34:08.188Z,55.81
2022-10-19T09:35:27.178Z,55.48
2022-10-19T09:36:50.394Z,55.64
2022-10-19T09:37:54.969Z,56.57
2022-10-19T09:38:58.200Z,55.33
2022-10-19T09:40:01.147Z,55.41
2022-10-19T09:41:20.598Z,55.71
2022-10-19T09:42:34.816Z,55.68
2022-10-19T09:43:37.703Z,53.89
2022-10-19T09:44:40.612Z,54.65
2022-10-19T09:45:54.471Z,55.26
2022-10-19T09:47:33.694Z,55.21
2022-10-19T09:48:49.942Z,54.93
2022-10-19T09:50:08.126Z,55.36
2022-10-19T09:51:14.475Z,55.23
2022-10-19T09:52:38.159Z,55.35
2022-10-19T09:53:50.357Z,55.28
2022-10-19T09:55:02.147Z,55.31
2022-10-19T09:56:12.967Z,55.43
2022-10-19T09:57:22.013Z,54.91
2022-10-19T09:58:33.032Z,54.24
2022-10-19T09:59:41.156Z,52.98
2022-10-19T10:00:47.256Z,51.54
2022-10-19T10:02:17.496Z,51.27
2022-10-19T10:03:36.736Z,50.28
2022-10-19T10:04:39.547Z,50.46
2022-10-19T10:05:47.949Z,50.57
2022-10-19T10:06:51.088Z,49.28
2022-10-19T10:07:56.242Z,49.73
2022-10-19T10:09:00.381Z,49.10
2022-10-19T10:10:12.108Z,49.76
2022-10-19T10:11:29.336Z,50.38
2022-10-19T10:12:36.067Z,50.09
2022-10-19T10:13:43.108Z,48.91
2022-10-19T10:14:46.129Z,48.58
2022-10-19T10:15:57.866Z,47.86
2022-10-19T10:17:22.842Z,48.16
2022-10-19T10:18:30.128Z,48.04
2022-10-19T10:19:36.345Z,48.57
2022-10-19T10:20:40.655Z,48.30
2022-10-19T10:21:52.971Z,48.42
2022-10-19T10:23:05.084Z,48.31
2022-10-19T10:24:10.609Z,48.50
2022-10-19T10:25:18.809Z,48.86
2022-10-19T10:26:21.634Z,48.74
2022-10-19T10:27:39.784Z,48.64
2022-10-19T10:28:51.610Z,48.50
2022-10-19T10:31:07.634Z,49.19
2022-10-19T10:32:19.831Z,49.31
2022-10-19T10:33:33.543Z,47.72
2022-10-19T10:35:00.001Z,47.18
2022-10-19T10:36:08.381Z,47.66
2022-10-19T10:37:28.400Z,47.49
2022-10-19T10:38:37.440Z,47.93
2022-10-19T10:39:43.033Z,48.99
2022-10-19T10:40:53.278Z,49.10
2022-10-19T10:42:01.625Z,49.28
2022-10-19T10:43:21.016Z,48.84
2022-10-19T10:44:30.979Z,48.38
2022-10-19T10:45:49.797Z,46.67
2022-10-19T10:46:56.755Z,45.99
2022-10-19T10:48:26.607Z,44.99
2022-10-19T10:49:35.005Z,45.16
2022-10-19T10:50:38.473Z,45.50
2022-10-19T10:51:49.332Z,46.21
2022-10-19T10:53:07.370Z,46.20
2022-10-19T10:54:23.054Z,46.53
2022-10-19T10:55:26.951Z,43.04
2022-10-19T10:56:34.076Z,43.21
2022-10-19T10:57:53.632Z,43.65
2022-10-19T10:58:58.804Z,44.13
2022-10-19T11:00:12.484Z,43.44
2022-10-19T11:01:29.192Z,41.58
2022-10-19T11:03:09.525Z,42.20
2022-10-19T11:04:17.837Z,42.88
2022-10-19T11:05:32.089Z,42.85
2022-10-19T11:06:44.444Z,44.03
2022-10-19T11:07:53.488Z,43.63
2022-10-19T11:09:16.212Z,44.34
2022-10-19T11:10:28.602Z,43.80
2022-10-19T11:11:41.466Z,44.40
2022-10-19T11:12:54.253Z,43.80
2022-10-19T11:14:35.947Z,43.45
2022-10-19T11:15:53.120Z,44.03
2022-10-19T11:17:00.830Z,44.53
2022-10-19T11:18:12.202Z,44.83
2022-10-19T11:19:24.958Z,45.93
2022-10-19T11:20:31.156Z,46.18
2022-10-19T11:21:45.514Z,46.56
2022-10-19T11:22:57.133Z,46.94
2022-10-19T11:24:02.768Z,47.01
2022-10-19T11:25:17.426Z,47.14
2022-10-19T11:26:20.323Z,47.54
2022-10-19T11:27:53.856Z,48.13
2022-10-19T11:29:17.669Z,48.06
2022-10-19T11:30:23.877Z,48.10
2022-10-19T11:31:49.065Z,48.24
2022-10-19T11:33:16.331Z,47.70
2022-10-19T11:34:37.731Z,48.33
2022-10-19T11:35:59.177Z,48.74
2022-10-19T11:37:29.767Z,48.35
2022-10-19T11:38:48.554Z,48.64
2022-10-19T11:40:05.971Z,49.39
2022-10-19T11:41:38.588Z,48.95
2022-10-19T11:43:10.232Z,48.68
2022-10-19T11:44:23.819Z,48.40
2022-10-19T11:45:41.414Z,49.29
2022-10-19T11:47:00.857Z,49.51
2022-10-19T11:48:27.681Z,49.38
2022-10-19T11:49:59.978Z,49.22
2022-10-19T11:51:25.527Z,48.46
2022-10-19T11:53:07.428Z,49.48
2022-10-19T11:54:34.935Z,49.16
2022-10-19T11:55:49.346Z,48.50
2022-10-19T11:57:03.610Z,48.17
2022-10-19T11:58:42.735Z,48.00
2022-10-19T12:00:13.622Z,47.88
2022-10-19T12:01:34.205Z,48.73
2022-10-19T12:03:13.084Z,48.64
2022-10-19T12:04:34.386Z,48.61
2022-10-19T12:06:01.887Z,47.70
2022-10-19T12:07:31.339Z,46.96
2022-10-19T12:09:00.575Z,47.22
2022-10-19T12:10:09.525Z,47.45
2022-10-19T12:11:37.275Z,47.48
2022-10-19T12:12:43.395Z,47.52
2022-10-19T12:13:54.800Z,47.08
2022-10-19T12:15:01.668Z,47.29
2022-10-19T12:16:06.108Z,46.74
2022-10-19T12:17:24.037Z,46.09
2022-10-19T12:18:35.876Z,46.58
2022-10-19T12:19:48.295Z,47.42
2022-10-19T12:20:53.924Z,48.40
2022-10-19T12:22:02.718Z,48.07
2022-10-19T12:23:17.681Z,48.14
2022-10-19T12:24:24.813Z,48.66
2022-10-19T12:25:32.019Z,48.74
2022-10-19T12:26:36.740Z,48.73
2022-10-19T12:27:41.785Z,49.24
2022-10-19T12:28:54.931Z,49.40
2022-10-19T12:30:04.298Z,49.78
2022-10-19T12:31:09.932Z,49.89
2022-10-19T12:32:19.919Z,49.83
2022-10-19T12:33:32.131Z,49.52
2022-10-19T12:35:00.879Z,49.55
2022-10-19T12:36:17.337Z,47.40
2022-10-19T12:37:39.951Z,47.37
2022-10-19T12:39:22.091Z,46.38
2022-10-19T12:40:37.909Z,46.59
2022-10-19T12:41:59.282Z,47.08
2022-10-19T12:43:15.276Z,46.25
2022-10-19T12:44:57.870Z,46.99
2022-10-19T12:46:10.719Z,47.01
2022-10-19T12:47:20.758Z,46.99
2022-10-19T12:48:24.847Z,44.74
2022-10-19T12:49:29.709Z,43.49
2022-10-19T12:51:02.470Z,42.61
2022-10-19T12:52:08.361Z,43.24
2022-10-19T12:53:28.105Z,43.14
2022-10-19T12:54:34.647Z,43.43
2022-10-19T12:55:39.470Z,43.93
2022-10-19T12:56:49.968Z,43.39
2022-10-19T12:58:02.849Z,43.82
2022-10-19T12:59:20.599Z,43.35
2022-10-19T13:00:26.683Z,43.78
2022-10-19T13:01:44.605Z,44.28
2022-10-19T13:02:57.408Z,43.14
2022-10-19T13:04:22.639Z,43.25
2022-10-19T13:05:28.330Z,43.99
2022-10-19T13:06:34.494Z,43.83
2022-10-19T13:07:37.964Z,44.00
2022-10-19T13:09:00.619Z,44.32
2022-10-19T13:10:08.798Z,44.02
2022-10-19T13:11:16.888Z,43.50
2022-10-19T13:12:25.805Z,42.47
2022-10-19T13:13:55.739Z,41.97
2022-10-19T13:15:05.267Z,42.57
2022-10-19T13:16:41.869Z,43.28
2022-10-19T13:17:46.049Z,42.87
2022-10-19T13:19:21.544Z,42.57
2022-10-19T13:20:28.251Z,42.28
2022-10-19T13:22:03.296Z,42.62
2022-10-19T13:23:09.195Z,42.64
2022-10-19T13:24:27.036Z,43.17
2022-10-19T13:25:33.488Z,43.76
2022-10-19T13:26:36.578Z,43.76
2022-10-19T13:27:39.811Z,43.99
2022-10-19T13:28:54.617Z,43.99
2022-10-19T13:29:57.405Z,43.80
2022-10-19T13:31:08.149Z,44.20
2022-10-19T13:32:51.973Z,44.65
2022-10-19T13:33:55.582Z,44.19
2022-10-19T13:35:27.142Z,44.56
2022-10-19T13:36:30.048Z,44.78
2022-10-19T13:37:34.761Z,45.27
2022-10-19T13:38:51.205Z,45.44
2022-10-19T13:39:55.152Z,45.43
2022-10-19T13:41:25.776Z,45.67
2022-10-19T13:42:28.747Z,45.96
2022-10-19T13:43:41.553Z,47.00
2022-10-19T13:44:47.442Z,46.60
2022-10-19T13:46:08.230Z,46.74
2022-10-19T13:47:22.890Z,46.92
2022-10-19T13:48:37.878Z,46.89
2022-10-19T13:49:54.616Z,46.51
2022-10-19T13:51:32.773Z,47.41
2022-10-19T13:52:45.457Z,46.94
2022-10-19T13:54:30.140Z,47.22
2022-10-19T13:56:20.267Z,47.24
2022-10-19T13:57:50.019Z,46.73
2022-10-19T13:59:10.518Z,47.42
2022-10-19T14:00:20.113Z,47.96
2022-10-19T14:01:37.858Z,47.91
2022-10-19T14:03:11.694Z,47.90
2022-10-19T14:04:30.758Z,48.81
2022-10-19T14:05:52.673Z,48.33
2022-10-19T14:07:06.247Z,48.79
2022-10-19T14:08:31.105Z,49.06
2022-10-19T14:09:52.882Z,48.83
2022-10-19T14:11:05.919Z,48.79
2022-10-19T14:12:18.031Z,49.64
2022-10-19T14:13:22.596Z,48.77
2022-10-19T14:14:25.849Z,48.38
2022-10-19T14:15:33.002Z,48.23
2022-10-19T14:16:58.308Z,48.23
2022-10-19T14:18:21.010Z,48.58
2022-10-19T14:19:31.121Z,48.65
2022-10-19T14:20:36.635Z,48.88
2022-10-19T14:21:39.501Z,48.94
2022-10-19T14:22:42.392Z,49.37
2022-10-19T14:24:48.072Z,48.36
2022-10-19T14:26:00.100Z,48.04
2022-10-19T14:27:08.136Z,47.73
2022-10-19T14:28:17.452Z,48.31
2022-10-19T14:29:20.955Z,48.31
2022-10-19T14:30:26.759Z,48.47
2022-10-19T14:31:36.428Z,48.58
2022-10-19T14:33:52.430Z,47.42
2022-10-19T14:35:00.712Z,48.00
2022-10-19T14:36:04.192Z,47.61
2022-10-19T14:37:23.789Z,47.95
2022-10-19T14:38:37.432Z,47.42
2022-10-19T14:39:40.247Z,48.04
2022-10-19T14:40:43.134Z,47.50
2022-10-19T14:41:45.908Z,48.09
2022-10-19T14:42:50.387Z,47.95
2022-10-19T14:43:53.946Z,48.36
2022-10-19T14:45:01.895Z,47.71
2022-10-19T14:46:12.211Z,47.95
2022-10-19T14:47:30.644Z,47.52
2022-10-19T14:48:51.293Z,47.98
2022-10-19T14:49:54.455Z,48.01
2022-10-19T14:50:58.601Z,47.89
2022-10-19T14:52:04.299Z,48.38
2022-10-19T14:53:15.636Z,47.78
2022-10-19T14:54:23.883Z,47.92
2022-10-19T14:55:38.582Z,49.01
2022-10-19T14:56:55.705Z,48.81
2022-10-19T14:57:58.915Z,49.27
2022-10-19T14:59:16.857Z,48.64
2022-10-19T15:01:27.553Z,49.04
2022-10-19T15:02:47.149Z,49.10